Time;durP1;ratioP1;P1;durP2;ratioP2;P2;SDS_P1;SDS_P2;PMS_P1;PMS_P2;Temp;Humidity;BMP_temperature;BMP_pressure;BME280_temperature;BME280_humidity;BME280_pressure;Samples;Min_cycle;Max_cycle;Signal;HPM_P1;HPM_P2
2021/03/27 00:02:27;;;;;;;14.88;7.80;;;8.50;60.30;;;7.71;41.17;94998.66;5013074;28;20221;-85
2021/03/27 00:05:17;;;;;;;11.55;6.95;;;8.60;60.40;;;7.64;41.10;95001.97;4996761;28;20198;-85
2021/03/27 00:08:00;;;;;;;15.27;7.82;;;8.50;60.60;;;7.58;42.26;95013.09;4996626;28;20234;-85
2021/03/27 00:10:42;;;;;;;12.07;6.80;;;8.40;60.60;;;7.57;41.53;95008.84;5012854;28;20208;-85
2021/03/27 00:13:33;;;;;;;13.32;6.68;;;8.40;60.10;;;7.55;41.60;95002.16;5028881;28;20596;-85
2021/03/27 00:16:14;;;;;;;9.98;5.70;;;8.30;60.80;;;7.55;41.84;95008.19;5012685;28;20228;-85
2021/03/27 00:19:08;;;;;;;10.63;6.43;;;8.30;60.10;;;7.56;41.57;95009.81;5012159;28;20217;-85
2021/03/27 00:21:51;;;;;;;8.52;5.57;;;8.30;60.80;;;7.51;41.29;94999.88;5012445;28;20242;-85
2021/03/27 00:24:53;;;;;;;12.77;5.97;;;8.30;60.70;;;7.47;41.13;95006.44;4996492;28;20285;-85
2021/03/27 00:27:34;;;;;;;10.07;5.63;;;8.20;60.80;;;7.41;41.43;95004.50;5012276;28;20271;-86
2021/03/27 00:30:08;;;;;;;10.52;5.82;;;8.20;60.20;;;7.38;40.99;95004.84;5012402;28;20666;-85
2021/03/27 00:32:51;;;;;;;10.30;5.97;;;8.20;60.30;;;7.32;41.64;95010.75;4996350;28;20721;-85
2021/03/27 00:35:35;;;;;;;10.52;6.28;;;8.10;60.80;;;7.26;41.46;95000.97;5012471;28;20189;-85
2021/03/27 00:38:09;;;;;;;9.63;5.63;;;8.10;60.80;;;7.19;41.39;94996.44;4996088;28;20221;-85
2021/03/27 00:40:45;;;;;;;11.60;5.65;;;8.10;60.30;;;7.16;41.35;94996.75;5012648;28;20216;-85
2021/03/27 00:43:31;;;;;;;11.88;6.50;;;8.00;60.50;;;7.13;41.96;94989.28;5011679;28;20557;-85
2021/03/27 00:46:03;;;;;;;9.32;5.57;;;7.90;61.10;;;7.12;41.88;94990.28;5012051;28;20200;-85
2021/03/27 00:48:37;;;;;;;12.18;6.30;;;7.90;60.80;;;7.11;41.88;94980.00;4992726;28;20202;-85
2021/03/27 00:51:18;;;;;;;12.23;6.50;;;7.90;60.80;;;7.13;41.92;94976.25;4976631;28;20317;-85
2021/03/27 00:54:10;;;;;;;9.82;5.88;;;7.80;61.00;;;7.12;41.81;94981.63;4960520;28;20652;-85
2021/03/27 00:56:56;;;;;;;10.52;6.03;;;7.90;61.40;;;7.14;42.19;94982.25;4977363;28;20236;-86
2021/03/27 00:59:37;;;;;;;9.63;5.43;;;7.90;61.10;;;7.14;42.33;94971.84;4977100;28;20225;-86
2021/03/27 01:02:14;;;;;;;10.07;5.90;;;7.90;61.60;;;7.14;42.39;94974.44;4998766;28;20309;-85
2021/03/27 01:05:06;;;;;;;12.85;6.40;;;7.80;61.00;;;7.17;42.21;94963.69;4998447;28;20192;-85
2021/03/27 01:08:07;;;;;;;9.23;6.00;;;7.80;61.10;;;7.17;41.83;94964.47;5011612;28;20304;-85
2021/03/27 01:11:05;;;;;;;14.48;6.18;;;7.80;61.00;;;7.25;42.42;94961.03;5001762;28;20639;-85
2021/03/27 01:13:50;;;;;;;10.75;5.85;;;7.90;61.80;;;7.27;42.81;94961.66;4995969;28;20208;-85
2021/03/27 01:16:25;;;;;;;11.15;5.85;;;7.90;61.90;;;7.27;43.10;94959.06;4992382;28;20292;-85
2021/03/27 01:19:12;;;;;;;10.45;5.45;;;7.90;62.00;;;7.28;43.01;94950.25;4992082;28;20304;-85
2021/03/27 01:21:42;;;;;;;8.15;5.45;;;7.90;62.10;;;7.30;42.76;94965.72;4992321;28;20226;-85
2021/03/27 01:24:14;;;;;;;9.95;5.35;;;7.90;61.60;;;7.27;42.79;94960.88;4992335;28;20257;-85
2021/03/27 01:26:58;;;;;;;8.63;5.60;;;7.90;61.90;;;7.31;42.60;94952.53;4994634;28;20218;-85
2021/03/27 01:29:40;;;;;;;7.90;5.15;;;7.90;62.40;;;7.36;42.61;94959.84;4996304;28;20206;-85
2021/03/27 01:32:36;;;;;;;10.82;5.55;;;7.90;62.40;;;7.36;42.84;94955.44;4979856;28;20213;-85
2021/03/27 01:35:17;;;;;;;9.15;5.78;;;7.90;62.50;;;7.39;43.25;94950.88;5014726;28;20198;-85
2021/03/27 01:38:13;;;;;;;11.80;6.28;;;8.00;62.50;;;7.41;42.84;94949.72;5027480;28;20220;-84
2021/03/27 01:41:08;;;;;;;12.25;6.55;;;8.00;62.50;;;7.44;42.85;94949.34;4999851;28;20227;-85
2021/03/27 01:44:28;;;;;;;11.65;6.70;;;8.00;63.30;;;7.47;42.69;94941.19;4995307;28;20212;-85
2021/03/27 01:47:09;;;;;;;11.80;7.18;;;8.00;62.50;;;7.51;43.10;94945.09;4976663;28;20727;-85
2021/03/27 01:49:55;;;;;;;13.27;6.93;;;8.10;62.50;;;7.55;43.51;94944.75;5014635;28;20201;-85
2021/03/27 01:52:59;;;;;;;13.98;7.93;;;8.10;62.60;;;7.57;43.93;94943.59;5015083;28;20225;-85
2021/03/27 01:55:56;;;;;;;9.88;6.75;;;8.10;62.90;;;7.57;43.11;94940.16;4998757;28;20212;-84
2021/03/27 01:58:31;;;;;;;11.32;6.80;;;8.10;62.70;;;7.57;43.29;94947.97;5011095;28;20190;-85
2021/03/27 02:01:02;;;;;;;15.00;7.95;;;8.10;62.20;;;7.58;42.98;94936.56;4995383;28;20222;-85
2021/03/27 02:03:45;;;;;;;11.75;7.30;;;8.10;61.90;;;7.58;43.11;94941.78;4995229;28;20190;-85
2021/03/27 02:06:40;;;;;;;13.48;7.38;;;8.10;62.60;;;7.54;43.63;94941.31;4995412;28;20225;-85
2021/03/27 02:10:03;;;;;;;13.40;7.60;;;8.10;62.40;;;7.51;43.96;94936.44;4995253;28;20214;-85
2021/03/27 02:12:57;;;;;;;11.40;6.55;;;8.10;62.80;;;7.48;43.47;94939.38;4974539;28;20225;-85
2021/03/27 02:15:39;;;;;;;9.82;6.47;;;8.10;62.80;;;7.46;43.58;94939.56;4996421;28;20186;-85
2021/03/27 02:18:34;;;;;;;10.52;6.90;;;8.10;63.50;;;7.41;43.58;94931.44;5014181;28;20209;-85
2021/03/27 02:21:35;;;;;;;10.00;6.32;;;8.10;62.60;;;7.34;43.54;94939.13;5015361;28;20229;-83
2021/03/27 02:24:22;;;;;;;7.72;5.53;;;8.10;62.80;;;7.28;43.46;94929.38;4998599;28;20713;-85
2021/03/27 02:27:01;;;;;;;8.95;5.50;;;8.00;62.50;;;7.23;43.92;94934.31;5014594;28;20244;-85
2021/03/27 02:29:54;;;;;;;11.02;5.30;;;8.00;62.60;;;7.21;43.84;94938.88;5014754;28;20386;-85
2021/03/27 02:32:53;;;;;;;7.03;4.70;;;7.90;62.00;;;7.16;44.01;94941.19;4998071;28;20221;-85
2021/03/27 02:36:06;;;;;;;9.23;4.80;;;7.90;62.80;;;7.07;43.64;94943.03;4998338;28;20193;-84
2021/03/27 02:39:00;;;;;;;8.52;5.18;;;7.90;62.70;;;7.03;44.32;94939.94;4997779;28;20197;-85
2021/03/27 02:42:16;;;;;;;8.63;4.25;;;7.80;62.70;;;7.00;44.14;94942.06;5015144;28;20213;-85
2021/03/27 02:44:53;;;;;;;6.80;4.63;;;7.80;62.70;;;6.98;43.93;94936.19;4997759;28;20674;-85
2021/03/27 02:47:47;;;;;;;7.38;4.25;;;7.80;62.70;;;6.98;43.73;94938.81;5013889;28;20703;-85
2021/03/27 02:50:36;;;;;;;9.30;5.10;;;7.70;62.60;;;6.94;44.03;94940.13;4997617;28;20297;-85
2021/03/27 02:53:41;;;;;;;7.55;5.00;;;7.70;62.90;;;6.88;43.67;94950.25;5013758;28;20300;-85
2021/03/27 02:56:47;;;;;;;7.72;5.05;;;7.70;63.00;;;6.87;43.75;94937.38;5022979;28;20221;-85
2021/03/27 02:59:30;;;;;;;8.52;5.05;;;7.60;62.80;;;6.85;43.76;94940.16;5010214;28;20221;-85
2021/03/27 03:02:44;;;;;;;10.07;5.40;;;7.60;62.20;;;6.80;43.64;94933.81;4979197;28;20218;-85
2021/03/27 03:05:41;;;;;;;8.25;5.00;;;7.60;63.00;;;6.77;44.02;94942.78;4993828;28;20198;-85
2021/03/27 03:08:21;;;;;;;7.45;5.20;;;7.50;63.10;;;6.77;43.97;94937.56;5010326;28;20213;-86
2021/03/27 03:11:08;;;;;;;7.97;5.22;;;7.50;63.00;;;6.78;44.09;94939.19;4993856;28;20194;-85
2021/03/27 03:14:09;;;;;;;9.32;5.60;;;7.50;63.00;;;6.79;44.00;94933.00;5003762;28;20558;-85
2021/03/27 03:16:48;;;;;;;9.05;5.30;;;7.50;62.90;;;6.78;43.81;94938.41;5002500;28;20225;-85
2021/03/27 03:19:40;;;;;;;8.02;5.10;;;7.50;62.90;;;6.72;44.17;94942.47;4993226;28;20230;-85
2021/03/27 03:22:37;;;;;;;6.63;4.70;;;7.50;63.40;;;6.61;44.20;94937.63;5012624;28;20221;-85
2021/03/27 03:25:19;;;;;;;7.35;4.18;;;7.40;63.10;;;6.58;44.43;94936.16;4997124;28;20197;-85
2021/03/27 03:28:30;;;;;;;10.23;4.10;;;7.40;63.40;;;6.51;44.53;94945.63;4997306;28;20423;-85
2021/03/27 03:31:09;;;;;;;5.95;3.80;;;7.30;63.50;;;6.48;44.62;94943.34;4996503;28;20228;-86
2021/03/27 03:34:07;;;;;;;5.22;3.25;;;7.30;63.20;;;6.40;44.83;94933.75;5013377;28;20224;-85
2021/03/27 03:36:56;;;;;;;5.53;3.53;;;7.30;63.50;;;6.37;44.70;94947.91;4997064;28;20268;-85
2021/03/27 03:39:41;;;;;;;5.82;3.70;;;7.20;63.60;;;6.32;44.58;94944.16;4997129;28;20225;-85
2021/03/27 03:42:50;;;;;;;7.80;3.92;;;7.20;63.70;;;6.25;44.68;94941.44;4996745;28;20217;-85
2021/03/27 03:46:01;;;;;;;6.82;3.92;;;7.20;63.80;;;6.21;44.47;94938.34;4995922;28;20201;-85
2021/03/27 03:48:49;;;;;;;5.07;3.47;;;7.10;63.60;;;6.18;44.68;94936.03;5005263;28;20259;-85
2021/03/27 03:51:44;;;;;;;5.68;3.97;;;7.00;63.50;;;6.18;44.51;94940.44;5006669;28;20264;-85
2021/03/27 03:55:07;;;;;;;7.57;4.10;;;7.00;63.70;;;6.15;45.20;94940.75;4989938;28;20264;-85
2021/03/27 03:58:20;;;;;;;5.63;4.35;;;6.90;63.90;;;6.12;44.89;94939.31;4983890;28;20248;-85
2021/03/27 04:01:02;;;;;;;7.05;3.97;;;7.00;64.00;;;6.13;44.94;94937.50;4999028;28;20244;-85
2021/03/27 04:03:52;;;;;;;6.45;4.25;;;6.90;63.10;;;6.14;44.95;94932.16;5018964;28;20209;-85
2021/03/27 04:06:25;;;;;;;7.55;3.92;;;6.90;64.00;;;6.16;45.08;94932.78;5001563;28;20294;-85
2021/03/27 04:09:00;;;;;;;6.57;3.88;;;6.90;63.80;;;6.19;45.06;94931.63;4986467;28;20679;-85
2021/03/27 04:11:54;;;;;;;4.90;3.53;;;6.90;63.70;;;6.23;44.99;94932.94;5010429;28;20458;-85
2021/03/27 04:14:48;;;;;;;5.30;3.90;;;6.90;64.20;;;6.23;45.17;94920.72;4991157;28;20360;-85
2021/03/27 04:17:34;;;;;;;6.10;3.70;;;6.90;64.40;;;6.32;45.07;94921.53;4985742;28;20218;-85
2021/03/27 04:20:17;;;;;;;6.47;3.78;;;6.90;64.30;;;6.37;45.25;94921.88;4978840;28;20228;-85
2021/03/27 04:23:17;;;;;;;5.78;3.90;;;6.90;64.40;;;6.40;45.28;94915.50;5000786;28;20682;-84
2021/03/27 04:26:32;;;;;;;5.55;3.80;;;6.90;63.90;;;6.48;45.48;94917.28;5027116;28;20262;-85
2021/03/27 04:29:28;;;;;;;6.50;4.32;;;7.00;64.40;;;6.55;45.46;94920.84;5010281;28;20216;-84
2021/03/27 04:32:35;;;;;;;6.38;4.10;;;7.10;64.50;;;6.63;45.56;94925.22;5009368;28;20230;-86
2021/03/27 04:35:28;;;;;;;7.10;4.53;;;7.10;64.70;;;6.68;45.83;94923.75;4982952;28;20198;-84
2021/03/27 04:38:38;;;;;;;7.40;4.68;;;7.20;64.70;;;6.73;45.93;94926.66;4986613;28;20226;-84
2021/03/27 04:41:33;;;;;;;8.38;4.25;;;7.20;64.60;;;6.77;45.71;94923.72;5011958;28;20524;-82
2021/03/27 04:44:25;;;;;;;7.72;4.90;;;7.30;64.40;;;6.85;45.89;94923.72;4992548;28;20606;-82
2021/03/27 04:47:16;;;;;;;6.05;4.38;;;7.30;64.50;;;6.91;45.82;94920.44;5013196;28;20575;-82
2021/03/27 04:49:55;;;;;;;6.40;4.00;;;7.40;64.70;;;6.98;45.46;94924.00;4993955;28;20204;-81
2021/03/27 04:52:53;;;;;;;5.97;4.25;;;7.50;64.30;;;6.99;45.54;94917.75;5002885;28;20229;-81
2021/03/27 04:55:44;;;;;;;5.15;3.78;;;7.50;64.80;;;7.02;45.60;94919.25;4994402;28;20202;-83
2021/03/27 04:58:42;;;;;;;6.82;3.55;;;7.50;64.70;;;7.01;46.20;94917.63;4993887;28;20221;-83
2021/03/27 05:01:44;;;;;;;5.97;3.40;;;7.60;65.20;;;6.96;46.64;94915.50;4994629;28;20286;-82
2021/03/27 05:04:29;;;;;;;3.78;2.80;;;7.60;65.20;;;7.00;46.36;94921.19;4997251;28;20212;-82
2021/03/27 05:07:12;;;;;;;4.65;3.28;;;7.60;64.50;;;6.95;46.52;94928.72;5013677;28;20259;-84
2021/03/27 05:10:04;;;;;;;4.93;3.40;;;7.60;64.90;;;6.90;46.66;94918.78;4997209;28;20206;-84
2021/03/27 05:12:54;;;;;;;4.72;3.20;;;7.60;64.50;;;6.87;46.75;94932.16;5013995;28;20221;-83
2021/03/27 05:15:49;;;;;;;4.28;2.90;;;7.50;65.10;;;6.81;46.38;94935.44;4997692;28;20201;-84
2021/03/27 05:18:44;;;;;;;4.43;3.05;;;7.50;65.20;;;6.78;46.25;94935.78;4997633;28;20217;-83
2021/03/27 05:21:36;;;;;;;4.47;3.35;;;7.50;64.40;;;6.70;46.37;94940.03;5030308;28;20240;-83
2021/03/27 05:24:23;;;;;;;4.38;3.00;;;7.40;64.80;;;6.64;46.45;94945.91;5014706;28;20197;-83
2021/03/27 05:27:13;;;;;;;4.63;3.05;;;7.40;65.00;;;6.62;46.35;94945.25;5015574;28;20240;-84
2021/03/27 05:29:59;;;;;;;5.32;3.30;;;7.40;65.10;;;6.58;46.39;94941.38;5015264;28;20209;-82
2021/03/27 05:32:44;;;;;;;4.72;3.38;;;7.30;64.80;;;6.57;46.29;94950.16;5014785;28;20241;-81
2021/03/27 05:35:46;;;;;;;6.20;3.60;;;7.30;65.00;;;6.52;46.64;94949.84;5015984;28;20678;-81
2021/03/27 05:38:16;;;;;;;5.35;3.50;;;7.30;65.10;;;6.55;46.26;94950.34;5014877;28;20216;-82
2021/03/27 05:41:32;;;;;;;5.22;3.35;;;7.30;64.70;;;6.55;46.42;94957.31;5013859;28;20233;-82
2021/03/27 05:44:54;;;;;;;4.55;3.35;;;7.20;65.30;;;6.52;46.16;94953.25;4999288;28;20245;-81
2021/03/27 05:48:10;;;;;;;7.07;4.35;;;7.20;65.10;;;6.55;45.98;94957.31;5010961;28;20626;-83
2021/03/27 05:51:08;;;;;;;13.65;7.40;;;7.20;65.10;;;6.60;46.16;94949.03;5008457;28;20202;-81
2021/03/27 05:54:16;;;;;;;28.65;13.05;;;7.20;64.60;;;6.69;46.34;94961.06;5025487;28;20552;-80
2021/03/27 05:57:10;;;;;;;39.03;18.73;;;7.20;64.60;;;6.83;46.08;94962.97;5011432;28;20251;-80
2021/03/27 06:00:21;;;;;;;52.70;25.63;;;7.30;64.80;;;6.98;46.03;94962.28;4997218;28;20279;-82
2021/03/27 06:03:40;;;;;;;80.63;36.13;;;7.40;65.80;;;7.17;46.61;94967.09;4998837;28;20283;-80
2021/03/27 06:06:44;;;;;;;35.42;18.65;;;7.50;66.40;;;7.40;46.65;94968.97;5007202;28;20249;-81
2021/03/27 06:09:43;;;;;;;21.23;11.15;;;7.60;66.10;;;7.71;46.96;94959.50;5004817;28;20209;-82
2021/03/27 06:12:32;;;;;;;12.43;7.97;;;7.80;66.60;;;8.05;47.02;94972.16;5013215;28;20253;-81
2021/03/27 06:15:45;;;;;;;12.98;6.18;;;8.00;66.80;;;8.42;46.68;94961.91;5028350;28;20296;-80
2021/03/27 06:18:57;;;;;;;9.35;6.07;;;8.20;66.80;;;8.80;46.54;94967.13;4992420;28;20221;-81
2021/03/27 06:22:38;;;;;;;9.60;6.28;;;8.50;66.40;;;9.12;46.12;94976.44;4987225;28;20241;-82
2021/03/27 06:25:38;;;;;;;11.93;7.10;;;8.80;66.40;;;9.36;46.37;94978.94;4977478;28;20207;-82
2021/03/27 06:29:05;;;;;;;10.68;7.35;;;9.10;66.40;;;9.55;46.43;94985.44;4977865;28;20318;-82
2021/03/27 06:32:30;;;;;;;9.38;6.35;;;9.30;66.00;;;9.69;46.30;94984.59;4997855;28;20572;-81
2021/03/27 06:35:47;;;;;;;11.77;7.65;;;9.60;66.00;;;9.87;45.93;94978.13;4991648;28;20209;-82
2021/03/27 06:39:27;;;;;;;13.43;9.02;;;9.80;66.30;;;10.04;46.00;94979.50;4996143;28;20204;-81
2021/03/27 06:42:27;;;;;;;12.05;8.25;;;9.90;66.30;;;10.20;46.01;94980.25;4996818;28;20226;-82
2021/03/27 06:45:14;;;;;;;10.02;7.53;;;10.10;64.60;;;10.32;45.79;94977.97;5010844;28;20204;-81
2021/03/27 06:48:19;;;;;;;10.15;7.32;;;10.20;64.70;;;10.44;45.78;94978.28;5027890;28;20562;-81
2021/03/27 06:51:38;;;;;;;9.23;6.60;;;10.40;64.60;;;10.65;45.52;94974.81;5027161;28;20299;-81
2021/03/27 06:54:14;;;;;;;9.80;6.53;;;10.50;64.50;;;10.91;45.61;94981.25;4995085;28;20634;-82
2021/03/27 06:57:14;;;;;;;10.93;7.05;;;10.70;64.40;;;11.14;45.65;94988.84;4994287;28;20223;-81
2021/03/27 07:00:26;;;;;;;9.40;6.18;;;10.90;64.50;;;11.45;45.40;94990.22;5004494;28;20241;-80
2021/03/27 07:03:49;;;;;;;10.80;6.40;;;11.10;64.40;;;11.71;45.28;94989.53;5010804;28;20267;-80
2021/03/27 07:07:04;;;;;;;10.02;6.97;;;11.30;64.30;;;12.01;45.05;94983.97;5010200;28;20300;-81
2021/03/27 07:10:27;;;;;;;13.77;6.53;;;11.60;64.30;;;12.35;45.14;94995.38;5026536;28;20189;-81
2021/03/27 07:13:22;;;;;;;11.13;6.70;;;11.80;64.40;;;12.61;45.10;94991.94;4994383;28;20220;-81
2021/03/27 07:16:25;;;;;;;10.88;6.57;;;12.10;64.80;;;12.85;44.86;94997.59;5027144;28;20208;-82
2021/03/27 07:19:13;;;;;;;9.52;6.38;;;12.40;64.60;;;13.04;44.92;95003.06;4999532;28;20272;-81
2021/03/27 07:22:07;;;;;;;9.40;6.13;;;12.50;64.40;;;13.17;44.36;95008.31;5013465;28;20271;-82
2021/03/27 07:25:01;;;;;;;7.35;5.85;;;12.80;64.10;;;13.32;44.43;95005.44;5011889;28;20219;-82
2021/03/27 07:27:58;;;;;;;7.45;5.60;;;13.00;63.90;;;13.45;44.49;95009.88;5012154;28;20224;-82
2021/03/27 07:30:50;;;;;;;8.18;5.68;;;13.10;64.00;;;13.58;44.38;95019.59;5012370;28;20208;-83
2021/03/27 07:33:47;;;;;;;8.50;5.20;;;13.30;63.90;;;13.70;44.38;95028.47;5011944;28;20212;-81
2021/03/27 07:37:15;;;;;;;6.63;5.35;;;13.40;63.70;;;13.85;44.14;95032.66;5028458;28;20240;-81
2021/03/27 07:40:01;;;;;;;5.72;5.03;;;13.50;63.40;;;13.99;44.08;95039.50;5012018;28;20236;-82
2021/03/27 07:42:46;;;;;;;5.80;4.53;;;13.80;63.60;;;14.17;44.14;95051.19;4995924;28;20213;-82
2021/03/27 07:45:45;;;;;;;6.22;4.80;;;13.90;63.50;;;14.33;43.70;95048.06;5013361;28;20288;-81
2021/03/27 07:48:53;;;;;;;9.68;5.13;;;14.00;63.10;;;14.51;43.04;95054.44;5030340;28;20208;-81
2021/03/27 07:51:54;;;;;;;6.60;4.35;;;14.20;63.00;;;14.65;42.84;95063.09;5028193;28;20307;-82
2021/03/27 07:54:52;;;;;;;6.75;4.53;;;14.40;62.60;;;14.80;42.45;95068.91;5031303;28;20601;-82
2021/03/27 07:57:47;;;;;;;6.22;4.03;;;14.50;62.40;;;14.94;42.46;95082.84;5032137;28;20215;-83
2021/03/27 08:00:55;;;;;;;8.63;4.75;;;14.70;62.40;;;15.03;42.00;95080.72;5012915;28;20216;-81
2021/03/27 08:03:46;;;;;;;8.90;5.28;;;14.80;62.10;;;15.13;41.63;95088.97;5007219;28;20193;-79
2021/03/27 08:06:51;;;;;;;8.70;5.70;;;15.00;61.70;;;15.16;40.51;95101.75;5006646;28;20231;-80
2021/03/27 08:10:07;;;;;;;9.35;6.10;;;15.10;61.10;;;15.24;40.72;95105.97;4995315;28;20291;-81
2021/03/27 08:12:56;;;;;;;11.55;6.28;;;15.10;61.10;;;15.32;40.18;95110.19;5007408;28;20307;-81
2021/03/27 08:16:20;;;;;;;9.48;5.30;;;15.20;60.90;;;15.47;40.77;95110.63;5011563;28;20200;-82
2021/03/27 08:19:37;;;;;;;7.07;5.20;;;15.30;61.10;;;15.62;40.65;95128.78;4994568;28;20205;-80
2021/03/27 08:22:04;;;;;;;8.20;5.63;;;15.50;60.90;;;15.74;40.01;95138.66;5027593;28;20321;-81
2021/03/27 08:24:39;;;;;;;8.95;5.35;;;15.60;60.70;;;15.79;40.13;95144.09;4995129;28;20196;-81
2021/03/27 08:27:23;;;;;;;8.10;6.20;;;15.70;60.70;;;15.76;40.25;95142.72;5011477;28;20251;-83
2021/03/27 08:30:24;;;;;;;8.10;5.20;;;15.70;60.50;;;15.72;40.68;95151.28;5011224;28;20315;-82
2021/03/27 08:33:20;;;;;;;9.25;5.75;;;15.70;60.70;;;15.60;40.60;95159.94;5017251;28;20227;-82
2021/03/27 08:36:41;;;;;;;8.30;6.00;;;15.80;60.60;;;15.48;40.57;95166.97;4994415;28;20193;-80
2021/03/27 08:39:44;;;;;;;10.35;5.72;;;15.70;60.10;;;15.29;40.92;95160.81;5003577;28;20197;-81
2021/03/27 08:42:26;;;;;;;8.00;5.40;;;15.60;60.40;;;15.20;41.62;95170.84;5015656;28;20220;-82
2021/03/27 08:45:30;;;;;;;7.13;5.55;;;15.60;60.90;;;15.05;41.90;95177.22;5014787;28;20201;-81
2021/03/27 08:48:58;;;;;;;9.95;5.95;;;15.50;60.90;;;14.79;42.24;95180.81;4998798;28;20238;-81
2021/03/27 08:51:40;;;;;;;10.57;6.20;;;15.40;61.10;;;14.59;42.89;95186.19;5015473;28;20244;-81
2021/03/27 08:55:04;;;;;;;9.55;5.93;;;15.20;61.40;;;14.44;43.26;95196.19;4999183;28;20200;-81
2021/03/27 08:57:40;;;;;;;8.90;6.07;;;15.00;61.50;;;14.29;43.93;95194.59;4958752;28;20280;-81
2021/03/27 09:00:34;;;;;;;11.93;5.80;;;14.90;62.30;;;14.14;44.84;95199.34;4943289;28;20214;-81
2021/03/27 09:03:19;;;;;;;8.63;5.80;;;14.80;62.50;;;14.04;44.91;95202.41;5008952;28;20232;-82
2021/03/27 09:06:17;;;;;;;9.02;6.00;;;14.60;62.60;;;13.98;45.16;95214.56;5015081;28;20224;-81
2021/03/27 09:09:06;;;;;;;7.35;5.30;;;14.40;62.70;;;14.00;45.07;95209.91;5015151;28;20630;-81
2021/03/27 09:12:03;;;;;;;8.57;6.53;;;14.40;63.20;;;14.05;45.23;95211.94;5031751;28;20212;-81
2021/03/27 09:15:44;;;;;;;7.28;5.53;;;14.40;63.10;;;14.12;45.18;95210.06;5015032;28;20193;-80
2021/03/27 09:18:38;;;;;;;9.25;5.70;;;14.30;63.10;;;14.23;44.99;95206.81;4959293;28;20212;-80
2021/03/27 09:21:54;;;;;;;7.50;5.45;;;14.40;63.60;;;14.46;44.81;95220.56;5012898;28;20610;-81
2021/03/27 09:24:37;;;;;;;7.00;5.30;;;14.50;63.80;;;14.65;44.89;95221.50;5015532;28;20197;-81
2021/03/27 09:27:42;;;;;;;9.57;5.68;;;14.60;63.80;;;14.79;44.87;95217.00;5014738;28;20307;-82
2021/03/27 09:30:56;;;;;;;6.95;5.43;;;14.70;63.50;;;14.91;44.62;95222.44;5015280;28;20208;-82
2021/03/27 09:33:35;;;;;;;7.53;5.63;;;14.80;63.90;;;15.09;44.43;95234.91;4976399;28;20220;-80
2021/03/27 09:37:05;;;;;;;8.27;5.68;;;14.90;63.50;;;15.26;44.48;95236.03;4994930;28;20229;-81
2021/03/27 09:39:51;;;;;;;7.72;6.40;;;15.00;63.50;;;15.42;44.26;95228.63;4997344;28;20420;-81
2021/03/27 09:42:41;;;;;;;7.68;6.03;;;15.20;63.60;;;15.56;43.76;95216.91;5012567;28;20216;-83
2021/03/27 09:45:12;;;;;;;7.95;5.63;;;15.30;63.30;;;15.69;43.48;95232.66;5013485;28;20597;-82
2021/03/27 09:47:55;;;;;;;6.82;5.50;;;15.50;63.40;;;15.87;43.41;95231.16;5011012;28;20223;-82
2021/03/27 09:50:50;;;;;;;8.32;5.30;;;15.60;63.20;;;16.02;43.04;95243.25;4994495;28;20197;-81
2021/03/27 09:54:00;;;;;;;7.50;5.25;;;15.70;62.80;;;16.03;42.36;95228.94;4962293;28;20224;-82
2021/03/27 09:56:43;;;;;;;6.75;4.75;;;15.90;62.40;;;15.96;42.43;95237.75;5001585;28;20216;-82
2021/03/27 09:59:34;;;;;;;5.30;4.38;;;15.90;62.20;;;15.99;42.46;95241.81;5012865;28;20657;-81
2021/03/27 10:02:40;;;;;;;5.10;4.18;;;16.00;62.30;;;16.00;42.38;95240.78;5013695;28;20259;-83
2021/03/27 10:05:36;;;;;;;3.75;3.45;;;16.00;62.20;;;16.06;42.50;95244.41;5009041;28;20278;-80
2021/03/27 10:08:27;;;;;;;5.32;3.17;;;16.10;62.10;;;16.08;42.42;95245.81;4997177;28;20209;-81
2021/03/27 10:11:06;;;;;;;4.00;3.50;;;16.10;61.90;;;15.96;41.76;95237.75;5013868;28;20722;-81
2021/03/27 10:13:39;;;;;;;3.45;3.10;;;16.10;61.70;;;15.91;41.82;95250.03;5000743;28;20205;-81
2021/03/27 10:16:17;;;;;;;3.60;3.17;;;16.10;61.40;;;15.82;42.21;95246.84;5010350;28;20307;-81
2021/03/27 10:19:08;;;;;;;4.05;3.20;;;16.10;61.70;;;15.73;42.31;95246.28;4994134;28;20197;-81
2021/03/27 10:21:51;;;;;;;4.40;2.88;;;16.00;61.70;;;15.67;42.44;95258.53;4993948;28;20237;-81
2021/03/27 10:24:30;;;;;;;4.15;2.92;;;15.90;61.70;;;15.58;42.48;95254.53;5021904;28;20247;-81
2021/03/27 10:27:10;;;;;;;3.92;2.75;;;15.90;61.80;;;15.52;43.07;95255.38;4993972;28;20224;-82
2021/03/27 10:30:02;;;;;;;4.25;2.80;;;15.80;62.90;;;15.51;42.72;95265.16;5004989;28;20279;-81
2021/03/27 10:32:32;;;;;;;2.63;2.30;;;15.90;62.20;;;15.58;42.88;95259.03;5002712;28;20275;-81
2021/03/27 10:35:55;;;;;;;3.00;2.70;;;15.80;62.20;;;15.60;43.29;95278.94;5030226;28;20251;-81
2021/03/27 10:39:01;;;;;;;2.95;2.33;;;15.80;62.10;;;15.51;42.80;95285.47;5002134;28;20205;-82
2021/03/27 10:41:53;;;;;;;2.72;2.30;;;15.80;62.00;;;15.39;43.21;95277.41;5014535;28;20240;-81
2021/03/27 10:44:42;;;;;;;2.67;2.40;;;15.70;62.00;;;15.33;43.28;95289.66;4996800;28;20556;-82
2021/03/27 10:47:16;;;;;;;3.20;2.60;;;15.70;62.20;;;15.21;43.34;95283.44;5013505;28;20225;-82
2021/03/27 10:49:56;;;;;;;2.90;2.60;;;15.60;62.10;;;15.08;43.56;95297.50;4996999;28;20197;-82
2021/03/27 10:52:56;;;;;;;3.05;2.67;;;15.50;62.10;;;14.93;43.86;95289.88;5012580;28;20771;-81
2021/03/27 10:55:44;;;;;;;3.90;2.42;;;15.50;62.30;;;14.87;43.79;95295.97;4993546;28;20209;-81
2021/03/27 10:58:39;;;;;;;3.70;2.55;;;15.30;62.40;;;14.78;44.64;95299.88;4992587;28;20217;-81
2021/03/27 11:01:52;;;;;;;3.00;2.20;;;15.20;62.30;;;14.73;44.11;95300.47;5012354;28;20264;-81
2021/03/27 11:05:07;;;;;;;2.80;2.42;;;15.10;62.30;;;14.65;44.34;95306.81;4976772;28;20295;-81
2021/03/27 11:08:08;;;;;;;2.90;2.15;;;15.10;62.50;;;14.62;44.07;95316.94;5020495;28;20208;-80
2021/03/27 11:11:12;;;;;;;2.40;2.20;;;15.00;62.60;;;14.52;44.57;95327.94;5012047;28;20204;-80
2021/03/27 11:14:07;;;;;;;2.90;2.05;;;15.00;62.50;;;14.44;44.93;95328.13;5012599;28;20215;-82
2021/03/27 11:16:44;;;;;;;2.78;1.83;;;14.90;62.80;;;14.36;44.80;95329.97;5012176;28;20300;-81
2021/03/27 11:19:57;;;;;;;2.55;2.05;;;14.80;62.70;;;14.29;44.75;95325.72;5011225;28;20208;-82
2021/03/27 11:22:41;;;;;;;2.78;2.00;;;14.70;62.60;;;14.21;44.73;95338.13;5018753;28;20221;-81
2021/03/27 11:25:40;;;;;;;1.63;1.52;;;14.70;62.70;;;14.11;44.18;95343.00;5009056;28;20288;-82
2021/03/27 11:28:27;;;;;;;1.50;1.40;;;14.60;62.50;;;13.98;44.32;95348.28;4995883;28;20247;-81
2021/03/27 11:31:12;;;;;;;2.90;1.40;;;14.50;62.50;;;13.91;44.39;95378.09;5008887;28;20201;-81
2021/03/27 11:34:27;;;;;;;1.65;1.40;;;14.40;62.40;;;13.89;44.34;95371.38;5009074;28;20213;-81
2021/03/27 11:37:25;;;;;;;1.67;1.58;;;14.30;62.40;;;13.88;44.40;95360.03;5009198;28;20217;-81
2021/03/27 11:40:24;;;;;;;1.77;1.48;;;14.30;62.70;;;13.87;44.38;95361.03;5006778;28;20208;-81
2021/03/27 11:43:22;;;;;;;2.33;1.90;;;14.20;62.60;;;13.88;44.32;95372.41;5009447;28;20736;-80
2021/03/27 11:45:57;;;;;;;1.35;1.25;;;14.20;62.60;;;13.86;43.88;95372.59;4990417;28;20208;-81
2021/03/27 11:48:43;;;;;;;1.42;1.20;;;14.20;63.30;;;13.75;43.86;95383.72;5007830;28;20471;-80
2021/03/27 11:51:35;;;;;;;1.30;1.20;;;14.10;62.20;;;13.66;43.71;95395.44;5008020;28;20220;-82
2021/03/27 11:54:30;;;;;;;1.30;1.20;;;14.10;62.20;;;13.55;43.45;95389.75;5011058;28;20232;-80
2021/03/27 11:57:02;;;;;;;1.27;1.17;;;14.10;61.90;;;13.50;43.38;95383.44;5012270;28;20220;-81
2021/03/27 12:00:47;;;;;;;1.85;1.30;;;14.00;61.90;;;13.49;43.53;95376.56;5010525;28;20596;-81
2021/03/27 12:02:35;;;;;;;1.40;1.30;;;13.90;61.90;;;13.56;43.69;95386.13;5012414;28;20235;-81
2021/03/27 12:05:23;;;;;;;1.15;1.15;;;14.00;62.30;;;13.67;43.56;95374.19;5011234;28;20199;-81
2021/03/27 12:08:05;;;;;;;1.30;1.20;;;13.90;62.30;;;13.81;43.71;95379.50;5011962;28;20223;-81
2021/03/27 12:11:06;;;;;;;1.67;1.30;;;13.90;62.30;;;13.99;43.29;95370.97;5011478;28;20814;-81
2021/03/27 12:14:21;;;;;;;1.67;1.20;;;14.00;62.10;;;14.18;42.22;95374.66;5011238;28;20203;-80
2021/03/27 12:17:22;;;;;;;1.25;1.15;;;14.10;61.90;;;14.43;42.56;95363.47;5011549;28;20225;-81
2021/03/27 12:20:27;;;;;;;1.30;1.20;;;14.20;61.80;;;14.71;41.83;95387.03;5011650;28;20200;-81
2021/03/27 12:23:17;;;;;;;1.17;1.10;;;14.50;61.40;;;14.96;39.83;95376.59;5011584;28;20690;-80